sensor_id;sensor_type;location;lat;lon;timestamp;temperature;humidity
40758;DHT22;26462;47.384;19.218;2022-09-01T00:00:10;20.30;73.60
40758;DHT22;26462;47.384;19.218;2022-09-01T00:02:40;20.50;73.70
40758;DHT22;26462;47.384;19.218;2022-09-01T00:05:09;20.40;74.70
40758;DHT22;26462;47.384;19.218;2022-09-01T00:07:37;20.30;75.70
40758;DHT22;26462;47.384;19.218;2022-09-01T00:10:06;20.30;75.90
40758;DHT22;26462;47.384;19.218;2022-09-01T00:12:34;20.20;76.70
40758;DHT22;26462;47.384;19.218;2022-09-01T00:15:03;20.10;78.20
40758;DHT22;26462;47.384;19.218;2022-09-01T00:17:31;20.20;79.10
40758;DHT22;26462;47.384;19.218;2022-09-01T00:19:59;20.00;80.70
40758;DHT22;26462;47.384;19.218;2022-09-01T00:22:27;20.10;81.70
40758;DHT22;26462;47.384;19.218;2022-09-01T00:24:55;20.20;83.10
40758;DHT22;26462;47.384;19.218;2022-09-01T00:27:22;20.20;84.70
40758;DHT22;26462;47.384;19.218;2022-09-01T00:29:57;20.20;86.40
40758;DHT22;26462;47.384;19.218;2022-09-01T00:32:26;20.00;88.90
40758;DHT22;26462;47.384;19.218;2022-09-01T00:34:54;19.90;90.00
40758;DHT22;26462;47.384;19.218;2022-09-01T00:37:21;19.80;90.70
40758;DHT22;26462;47.384;19.218;2022-09-01T00:39:49;19.90;91.90
40758;DHT22;26462;47.384;19.218;2022-09-01T00:42:16;20.00;93.30
40758;DHT22;26462;47.384;19.218;2022-09-01T00:44:44;20.00;94.10
40758;DHT22;26462;47.384;19.218;2022-09-01T00:47:12;19.90;95.60
40758;DHT22;26462;47.384;19.218;2022-09-01T00:49:44;19.90;96.80
40758;DHT22;26462;47.384;19.218;2022-09-01T00:52:23;19.90;97.90
40758;DHT22;26462;47.384;19.218;2022-09-01T00:55:06;19.90;97.20
40758;DHT22;26462;47.384;19.218;2022-09-01T00:57:34;19.80;96.50
40758;DHT22;26462;47.384;19.218;2022-09-01T01:00:25;19.60;97.10
40758;DHT22;26462;47.384;19.218;2022-09-01T01:02:52;19.50;98.00
40758;DHT22;26462;47.384;19.218;2022-09-01T01:05:31;19.00;99.40
40758;DHT22;26462;47.384;19.218;2022-09-01T01:08:01;18.90;99.90
40758;DHT22;26462;47.384;19.218;2022-09-01T01:10:31;18.80;99.90
40758;DHT22;26462;47.384;19.218;2022-09-01T01:12:59;18.40;99.90
40758;DHT22;26462;47.384;19.218;2022-09-01T01:15:30;18.50;99.90
40758;DHT22;26462;47.384;19.218;2022-09-01T01:17:58;18.60;99.90
40758;DHT22;26462;47.384;19.218;2022-09-01T01:20:27;18.50;99.90
40758;DHT22;26462;47.384;19.218;2022-09-01T02:09:03;18.40;99.90
40758;DHT22;26462;47.384;19.218;2022-09-01T02:12:44;18.50;99.90
40758;DHT22;26462;47.384;19.218;2022-09-01T02:33:57;18.30;99.90
40758;DHT22;26462;47.384;19.218;2022-09-01T02:42:22;18.00;99.90
40758;DHT22;26462;47.384;19.218;2022-09-01T03:06:30;17.50;99.90
40758;DHT22;26462;47.384;19.218;2022-09-01T03:10:22;17.50;99.90
40758;DHT22;26462;47.384;19.218;2022-09-01T03:18:38;17.50;99.90
40758;DHT22;26462;47.384;19.218;2022-09-01T03:26:38;17.50;99.90
40758;DHT22;26462;47.384;19.218;2022-09-01T03:29:57;17.40;99.90
40758;DHT22;26462;47.384;19.218;2022-09-01T03:51:03;17.00;99.90
40758;DHT22;26462;47.384;19.218;2022-09-01T03:54:14;17.40;99.90
40758;DHT22;26462;47.384;19.218;2022-09-01T03:57:35;17.40;99.90
40758;DHT22;26462;47.384;19.218;2022-09-01T04:01:20;17.60;99.90
40758;DHT22;26462;47.384;19.218;2022-09-01T04:05:31;17.70;99.90
40758;DHT22;26462;47.384;19.218;2022-09-01T04:09:11;17.80;99.90
40758;DHT22;26462;47.384;19.218;2022-09-01T04:13:34;17.80;99.90
40758;DHT22;26462;47.384;19.218;2022-09-01T05:10:13;17.50;99.90
40758;DHT22;26462;47.384;19.218;2022-09-01T05:20:14;17.10;99.90
40758;DHT22;26462;47.384;19.218;2022-09-01T05:22:47;17.00;99.90
40758;DHT22;26462;47.384;19.218;2022-09-01T05:26:18;17.20;99.90
40758;DHT22;26462;47.384;19.218;2022-09-01T05:28:53;17.10;99.90
40758;DHT22;26462;47.384;19.218;2022-09-01T05:31:33;17.20;99.90
40758;DHT22;26462;47.384;19.218;2022-09-01T05:34:21;17.00;99.90
40758;DHT22;26462;47.384;19.218;2022-09-01T05:37:26;16.90;99.90
40758;DHT22;26462;47.384;19.218;2022-09-01T06:38:42;17.40;99.90
40758;DHT22;26462;47.384;19.218;2022-09-01T06:46:08;17.40;99.90
40758;DHT22;26462;47.384;19.218;2022-09-01T06:56:29;17.10;99.90
40758;DHT22;26462;47.384;19.218;2022-09-01T07:00:19;17.00;99.90
40758;DHT22;26462;47.384;19.218;2022-09-01T07:03:09;17.20;99.90
40758;DHT22;26462;47.384;19.218;2022-09-01T07:06:24;16.80;99.90
40758;DHT22;26462;47.384;19.218;2022-09-01T07:16:37;17.20;99.90
40758;DHT22;26462;47.384;19.218;2022-09-01T09:34:36;18.40;99.90
40758;DHT22;26462;47.384;19.218;2022-09-01T09:52:22;18.70;99.90
40758;DHT22;26462;47.384;19.218;2022-09-01T09:58:15;18.60;99.50
40758;DHT22;26462;47.384;19.218;2022-09-01T10:01:03;18.60;99.20
40758;DHT22;26462;47.384;19.218;2022-09-01T10:06:40;18.70;98.00
40758;DHT22;26462;47.384;19.218;2022-09-01T10:09:14;18.80;98.50
40758;DHT22;26462;47.384;19.218;2022-09-01T10:11:46;18.80;96.80
40758;DHT22;26462;47.384;19.218;2022-09-01T10:14:19;18.90;95.50
40758;DHT22;26462;47.384;19.218;2022-09-01T10:17:13;18.80;95.60
40758;DHT22;26462;47.384;19.218;2022-09-01T10:20:18;19.00;96.30
40758;DHT22;26462;47.384;19.218;2022-09-01T10:22:48;19.10;96.90
40758;DHT22;26462;47.384;19.218;2022-09-01T10:25:25;19.10;96.20
40758;DHT22;26462;47.384;19.218;2022-09-01T10:27:58;19.00;96.70
40758;DHT22;26462;47.384;19.218;2022-09-01T10:30:29;19.10;96.20
40758;DHT22;26462;47.384;19.218;2022-09-01T10:32:59;19.10;96.70
40758;DHT22;26462;47.384;19.218;2022-09-01T10:35:43;19.20;95.60
40758;DHT22;26462;47.384;19.218;2022-09-01T10:38:23;19.20;95.90
40758;DHT22;26462;47.384;19.218;2022-09-01T10:40:54;19.20;95.80
40758;DHT22;26462;47.384;19.218;2022-09-01T10:43:49;19.40;96.10
40758;DHT22;26462;47.384;19.218;2022-09-01T10:49:17;19.50;94.80
40758;DHT22;26462;47.384;19.218;2022-09-01T10:51:50;19.50;94.30
40758;DHT22;26462;47.384;19.218;2022-09-01T10:54:51;19.60;94.50
40758;DHT22;26462;47.384;19.218;2022-09-01T10:57:37;19.60;93.40
40758;DHT22;26462;47.384;19.218;2022-09-01T11:00:42;19.60;93.90
40758;DHT22;26462;47.384;19.218;2022-09-01T11:03:49;19.70;92.50
40758;DHT22;26462;47.384;19.218;2022-09-01T11:14:33;20.20;87.20
40758;DHT22;26462;47.384;19.218;2022-09-01T11:17:29;20.50;87.40
40758;DHT22;26462;47.384;19.218;2022-09-01T11:20:04;20.60;84.10
40758;DHT22;26462;47.384;19.218;2022-09-01T11:22:43;20.70;80.20
40758;DHT22;26462;47.384;19.218;2022-09-01T11:39:31;21.10;76.60
40758;DHT22;26462;47.384;19.218;2022-09-01T11:47:14;21.40;71.30
40758;DHT22;26462;47.384;19.218;2022-09-01T11:50:07;21.30;70.80
40758;DHT22;26462;47.384;19.218;2022-09-01T11:52:37;21.40;70.00
40758;DHT22;26462;47.384;19.218;2022-09-01T11:55:06;21.40;69.60
40758;DHT22;26462;47.384;19.218;2022-09-01T11:57:37;21.40;68.00
40758;DHT22;26462;47.384;19.218;2022-09-01T12:00:13;21.30;67.40
40758;DHT22;26462;47.384;19.218;2022-09-01T12:02:48;21.30;66.40
40758;DHT22;26462;47.384;19.218;2022-09-01T12:05:34;21.20;68.40
40758;DHT22;26462;47.384;19.218;2022-09-01T12:08:11;21.20;65.70
40758;DHT22;26462;47.384;19.218;2022-09-01T12:10:41;21.20;66.00
40758;DHT22;26462;47.384;19.218;2022-09-01T12:13:22;21.20;66.80
40758;DHT22;26462;47.384;19.218;2022-09-01T12:15:55;21.30;66.60
40758;DHT22;26462;47.384;19.218;2022-09-01T12:18:48;21.40;65.40
40758;DHT22;26462;47.384;19.218;2022-09-01T12:21:29;21.40;64.60
40758;DHT22;26462;47.384;19.218;2022-09-01T12:24:17;21.40;65.20
40758;DHT22;26462;47.384;19.218;2022-09-01T12:26:48;21.40;64.80
40758;DHT22;26462;47.384;19.218;2022-09-01T12:29:16;21.40;65.30
40758;DHT22;26462;47.384;19.218;2022-09-01T12:31:46;21.30;64.20
40758;DHT22;26462;47.384;19.218;2022-09-01T12:34:36;21.30;64.50
40758;DHT22;26462;47.384;19.218;2022-09-01T12:39:41;21.50;64.30
40758;DHT22;26462;47.384;19.218;2022-09-01T12:42:24;21.40;63.00
40758;DHT22;26462;47.384;19.218;2022-09-01T12:45:12;21.50;63.20
40758;DHT22;26462;47.384;19.218;2022-09-01T12:53:01;21.60;62.80
40758;DHT22;26462;47.384;19.218;2022-09-01T12:55:32;21.80;61.70
40758;DHT22;26462;47.384;19.218;2022-09-01T12:58:20;21.70;61.90
40758;DHT22;26462;47.384;19.218;2022-09-01T13:01:00;21.70;61.90
40758;DHT22;26462;47.384;19.218;2022-09-01T13:03:30;21.70;60.80
40758;DHT22;26462;47.384;19.218;2022-09-01T13:06:02;21.70;61.40
40758;DHT22;26462;47.384;19.218;2022-09-01T13:08:34;21.80;60.80
40758;DHT22;26462;47.384;19.218;2022-09-01T13:11:13;21.90;59.70
40758;DHT22;26462;47.384;19.218;2022-09-01T13:13:42;22.00;60.20
40758;DHT22;26462;47.384;19.218;2022-09-01T13:16:09;21.90;59.80
40758;DHT22;26462;47.384;19.218;2022-09-01T13:18:41;21.90;59.50
40758;DHT22;26462;47.384;19.218;2022-09-01T13:21:30;22.00;58.20
40758;DHT22;26462;47.384;19.218;2022-09-01T13:23:58;22.00;58.80
40758;DHT22;26462;47.384;19.218;2022-09-01T13:26:25;22.00;58.30
40758;DHT22;26462;47.384;19.218;2022-09-01T13:28:53;22.00;58.90
40758;DHT22;26462;47.384;19.218;2022-09-01T13:31:20;22.00;58.60
40758;DHT22;26462;47.384;19.218;2022-09-01T13:33:57;22.00;58.20
40758;DHT22;26462;47.384;19.218;2022-09-01T13:36:45;22.00;59.10
40758;DHT22;26462;47.384;19.218;2022-09-01T13:39:17;22.10;60.20
40758;DHT22;26462;47.384;19.218;2022-09-01T13:41:46;22.20;59.00
40758;DHT22;26462;47.384;19.218;2022-09-01T13:44:14;22.20;59.30
40758;DHT22;26462;47.384;19.218;2022-09-01T13:46:44;22.10;58.90
40758;DHT22;26462;47.384;19.218;2022-09-01T13:49:32;22.20;59.00
40758;DHT22;26462;47.384;19.218;2022-09-01T13:52:19;22.10;59.00
40758;DHT22;26462;47.384;19.218;2022-09-01T13:54:47;22.10;58.70
40758;DHT22;26462;47.384;19.218;2022-09-01T13:57:15;22.30;57.60
40758;DHT22;26462;47.384;19.218;2022-09-01T13:59:43;22.20;56.70
40758;DHT22;26462;47.384;19.218;2022-09-01T14:02:10;22.30;58.10
40758;DHT22;26462;47.384;19.218;2022-09-01T14:04:37;22.30;58.00
40758;DHT22;26462;47.384;19.218;2022-09-01T14:07:05;22.20;58.30
40758;DHT22;26462;47.384;19.218;2022-09-01T14:09:33;22.20;58.80
40758;DHT22;26462;47.384;19.218;2022-09-01T14:12:00;22.10;58.80
40758;DHT22;26462;47.384;19.218;2022-09-01T14:14:28;22.10;58.40
40758;DHT22;26462;47.384;19.218;2022-09-01T14:17:15;22.20;58.30
40758;DHT22;26462;47.384;19.218;2022-09-01T14:19:48;22.20;57.80
40758;DHT22;26462;47.384;19.218;2022-09-01T14:22:16;22.10;58.40
40758;DHT22;26462;47.384;19.218;2022-09-01T14:24:43;22.20;56.70
40758;DHT22;26462;47.384;19.218;2022-09-01T14:27:11;22.10;56.80
40758;DHT22;26462;47.384;19.218;2022-09-01T14:29:39;22.20;55.30
40758;DHT22;26462;47.384;19.218;2022-09-01T14:32:05;22.10;56.70
40758;DHT22;26462;47.384;19.218;2022-09-01T14:34:34;22.10;57.30
40758;DHT22;26462;47.384;19.218;2022-09-01T14:37:02;22.10;57.00
40758;DHT22;26462;47.384;19.218;2022-09-01T14:39:30;22.10;58.90
40758;DHT22;26462;47.384;19.218;2022-09-01T14:41:57;22.10;59.70
40758;DHT22;26462;47.384;19.218;2022-09-01T14:44:25;22.10;61.00
40758;DHT22;26462;47.384;19.218;2022-09-01T14:46:52;22.00;60.50
40758;DHT22;26462;47.384;19.218;2022-09-01T14:49:20;22.00;61.30
40758;DHT22;26462;47.384;19.218;2022-09-01T14:51:48;22.00;61.00
40758;DHT22;26462;47.384;19.218;2022-09-01T14:54:38;22.00;62.40
40758;DHT22;26462;47.384;19.218;2022-09-01T14:57:05;22.00;61.50
40758;DHT22;26462;47.384;19.218;2022-09-01T14:59:53;22.00;61.70
40758;DHT22;26462;47.384;19.218;2022-09-01T15:02:20;22.00;61.80
40758;DHT22;26462;47.384;19.218;2022-09-01T15:04:47;22.00;61.70
40758;DHT22;26462;47.384;19.218;2022-09-01T15:07:16;21.90;62.60
40758;DHT22;26462;47.384;19.218;2022-09-01T15:09:43;21.90;62.20
40758;DHT22;26462;47.384;19.218;2022-09-01T15:12:11;21.90;61.00
40758;DHT22;26462;47.384;19.218;2022-09-01T15:14:38;21.90;60.70
40758;DHT22;26462;47.384;19.218;2022-09-01T15:17:05;21.90;62.30
40758;DHT22;26462;47.384;19.218;2022-09-01T15:19:34;21.90;62.50
40758;DHT22;26462;47.384;19.218;2022-09-01T15:22:01;21.90;61.50
40758;DHT22;26462;47.384;19.218;2022-09-01T15:24:29;21.90;60.70
40758;DHT22;26462;47.384;19.218;2022-09-01T15:26:56;21.90;62.00
40758;DHT22;26462;47.384;19.218;2022-09-01T15:29:23;21.90;61.60
40758;DHT22;26462;47.384;19.218;2022-09-01T15:31:52;21.90;60.50
40758;DHT22;26462;47.384;19.218;2022-09-01T15:34:22;21.90;62.10
40758;DHT22;26462;47.384;19.218;2022-09-01T15:36:50;21.90;62.80
40758;DHT22;26462;47.384;19.218;2022-09-01T15:39:17;22.00;63.60
40758;DHT22;26462;47.384;19.218;2022-09-01T15:41:45;22.00;62.80
40758;DHT22;26462;47.384;19.218;2022-09-01T15:44:12;21.90;62.30
40758;DHT22;26462;47.384;19.218;2022-09-01T15:46:39;21.90;61.40
40758;DHT22;26462;47.384;19.218;2022-09-01T15:49:10;21.90;61.50
40758;DHT22;26462;47.384;19.218;2022-09-01T15:51:40;21.90;60.90
40758;DHT22;26462;47.384;19.218;2022-09-01T15:54:16;21.90;62.00
40758;DHT22;26462;47.384;19.218;2022-09-01T15:56:45;21.90;62.60
40758;DHT22;26462;47.384;19.218;2022-09-01T15:59:13;21.90;61.80
40758;DHT22;26462;47.384;19.218;2022-09-01T16:01:43;21.90;60.30
40758;DHT22;26462;47.384;19.218;2022-09-01T16:04:14;21.90;59.00
40758;DHT22;26462;47.384;19.218;2022-09-01T16:06:46;21.90;59.20
40758;DHT22;26462;47.384;19.218;2022-09-01T16:09:16;21.80;59.10
40758;DHT22;26462;47.384;19.218;2022-09-01T16:11:44;21.80;59.50
40758;DHT22;26462;47.384;19.218;2022-09-01T16:14:12;21.80;59.60
40758;DHT22;26462;47.384;19.218;2022-09-01T16:22:16;21.70;59.60
40758;DHT22;26462;47.384;19.218;2022-09-01T16:24:49;21.60;59.10
40758;DHT22;26462;47.384;19.218;2022-09-01T16:27:20;21.60;58.60
40758;DHT22;26462;47.384;19.218;2022-09-01T16:29:54;21.60;58.70
40758;DHT22;26462;47.384;19.218;2022-09-01T16:32:22;21.50;59.60
40758;DHT22;26462;47.384;19.218;2022-09-01T16:34:50;21.40;59.80
40758;DHT22;26462;47.384;19.218;2022-09-01T16:40:33;21.30;59.70
40758;DHT22;26462;47.384;19.218;2022-09-01T16:48:38;21.20;60.30
40758;DHT22;26462;47.384;19.218;2022-09-01T16:51:29;21.10;61.00
40758;DHT22;26462;47.384;19.218;2022-09-01T16:56:52;21.00;62.20
40758;DHT22;26462;47.384;19.218;2022-09-01T17:02:49;20.90;64.10
40758;DHT22;26462;47.384;19.218;2022-09-01T17:05:27;20.80;65.70
40758;DHT22;26462;47.384;19.218;2022-09-01T17:08:21;20.80;66.80
40758;DHT22;26462;47.384;19.218;2022-09-01T17:11:11;20.70;70.90
40758;DHT22;26462;47.384;19.218;2022-09-01T17:13:49;20.70;68.50
40758;DHT22;26462;47.384;19.218;2022-09-01T17:16:32;20.60;67.90
40758;DHT22;26462;47.384;19.218;2022-09-01T17:19:08;20.60;68.90
40758;DHT22;26462;47.384;19.218;2022-09-01T17:21:42;20.60;68.40
40758;DHT22;26462;47.384;19.218;2022-09-01T17:24:44;20.50;69.50
40758;DHT22;26462;47.384;19.218;2022-09-01T17:27:30;20.40;70.90
40758;DHT22;26462;47.384;19.218;2022-09-01T17:30:03;20.40;70.30
40758;DHT22;26462;47.384;19.218;2022-09-01T17:32:36;20.40;69.30
40758;DHT22;26462;47.384;19.218;2022-09-01T17:35:29;20.30;67.50
40758;DHT22;26462;47.384;19.218;2022-09-01T17:46:15;20.10;73.40
40758;DHT22;26462;47.384;19.218;2022-09-01T17:49:06;20.10;74.20
40758;DHT22;26462;47.384;19.218;2022-09-01T17:51:48;20.00;73.10
40758;DHT22;26462;47.384;19.218;2022-09-01T18:00:27;19.90;78.60
40758;DHT22;26462;47.384;19.218;2022-09-01T18:05:44;19.80;77.40
40758;DHT22;26462;47.384;19.218;2022-09-01T18:11:01;19.70;81.50
40758;DHT22;26462;47.384;19.218;2022-09-01T18:13:59;19.70;81.10
40758;DHT22;26462;47.384;19.218;2022-09-01T18:16:31;19.60;83.80
40758;DHT22;26462;47.384;19.218;2022-09-01T18:19:11;19.50;86.30
40758;DHT22;26462;47.384;19.218;2022-09-01T18:21:54;19.60;87.00
40758;DHT22;26462;47.384;19.218;2022-09-01T18:24:31;19.50;85.40
40758;DHT22;26462;47.384;19.218;2022-09-01T18:27:00;19.50;84.00
40758;DHT22;26462;47.384;19.218;2022-09-01T18:29:27;19.40;84.30
40758;DHT22;26462;47.384;19.218;2022-09-01T18:40:30;19.20;84.90
40758;DHT22;26462;47.384;19.218;2022-09-01T18:43:14;19.20;87.00
40758;DHT22;26462;47.384;19.218;2022-09-01T18:45:59;19.20;87.90
40758;DHT22;26462;47.384;19.218;2022-09-01T18:48:48;19.10;87.40
40758;DHT22;26462;47.384;19.218;2022-09-01T18:54:32;19.10;89.00
40758;DHT22;26462;47.384;19.218;2022-09-01T18:57:05;19.00;90.00
40758;DHT22;26462;47.384;19.218;2022-09-01T19:05:13;18.90;91.20
40758;DHT22;26462;47.384;19.218;2022-09-01T19:08:01;18.90;91.20
40758;DHT22;26462;47.384;19.218;2022-09-01T19:13:19;18.90;91.80
40758;DHT22;26462;47.384;19.218;2022-09-01T19:16:27;18.90;92.10
40758;DHT22;26462;47.384;19.218;2022-09-01T19:21:59;18.80;88.00
40758;DHT22;26462;47.384;19.218;2022-09-01T19:24:43;18.80;85.30
40758;DHT22;26462;47.384;19.218;2022-09-01T19:27:15;18.80;86.40
40758;DHT22;26462;47.384;19.218;2022-09-01T19:29:50;18.80;86.50
40758;DHT22;26462;47.384;19.218;2022-09-01T19:32:21;18.80;84.80
40758;DHT22;26462;47.384;19.218;2022-09-01T19:35:09;18.80;87.80
40758;DHT22;26462;47.384;19.218;2022-09-01T19:37:41;18.70;82.70
40758;DHT22;26462;47.384;19.218;2022-09-01T19:40:12;18.70;81.90
40758;DHT22;26462;47.384;19.218;2022-09-01T19:43:10;18.70;80.20
40758;DHT22;26462;47.384;19.218;2022-09-01T20:00:17;18.60;78.70
40758;DHT22;26462;47.384;19.218;2022-09-01T20:08:37;18.40;79.10
